sensor_id;sensor_type;location;lat;lon;timestamp;P1;durP1;ratioP1;P2;durP2;ratioP2
41077;SDS011;26823;42.662;23.352;2023-04-06T00:00:13;8.57;;;5.85;;
41077;SDS011;26823;42.662;23.352;2023-04-06T00:02:39;9.68;;;5.43;;
41077;SDS011;26823;42.662;23.352;2023-04-06T00:05:05;9.38;;;6.10;;
41077;SDS011;26823;42.662;23.352;2023-04-06T00:07:31;9.55;;;6.07;;
41077;SDS011;26823;42.662;23.352;2023-04-06T00:09:58;8.55;;;6.28;;
41077;SDS011;26823;42.662;23.352;2023-04-06T00:12:23;10.10;;;6.10;;
41077;SDS011;26823;42.662;23.352;2023-04-06T00:14:49;8.27;;;5.68;;
41077;SDS011;26823;42.662;23.352;2023-04-06T00:17:15;10.23;;;6.20;;
41077;SDS011;26823;42.662;23.352;2023-04-06T00:19:40;10.25;;;6.53;;
41077;SDS011;26823;42.662;23.352;2023-04-06T00:22:06;9.02;;;6.18;;
41077;SDS011;26823;42.662;23.352;2023-04-06T00:24:31;8.00;;;6.22;;
41077;SDS011;26823;42.662;23.352;2023-04-06T00:26:57;9.85;;;6.03;;
41077;SDS011;26823;42.662;23.352;2023-04-06T00:29:22;8.43;;;6.28;;
41077;SDS011;26823;42.662;23.352;2023-04-06T00:31:48;10.98;;;7.05;;
41077;SDS011;26823;42.662;23.352;2023-04-06T00:34:13;6.88;;;5.78;;
41077;SDS011;26823;42.662;23.352;2023-04-06T00:36:40;9.80;;;6.38;;
41077;SDS011;26823;42.662;23.352;2023-04-06T00:39:06;10.15;;;6.75;;
41077;SDS011;26823;42.662;23.352;2023-04-06T00:41:31;11.43;;;6.95;;
41077;SDS011;26823;42.662;23.352;2023-04-06T00:43:57;9.05;;;5.93;;
41077;SDS011;26823;42.662;23.352;2023-04-06T00:46:22;8.43;;;5.88;;
41077;SDS011;26823;42.662;23.352;2023-04-06T00:48:48;8.27;;;5.88;;
41077;SDS011;26823;42.662;23.352;2023-04-06T00:51:13;11.38;;;6.20;;
41077;SDS011;26823;42.662;23.352;2023-04-06T00:53:39;7.80;;;5.57;;
41077;SDS011;26823;42.662;23.352;2023-04-06T00:56:05;9.88;;;6.55;;
41077;SDS011;26823;42.662;23.352;2023-04-06T00:58:30;8.10;;;5.47;;
41077;SDS011;26823;42.662;23.352;2023-04-06T01:00:57;9.50;;;6.32;;
41077;SDS011;26823;42.662;23.352;2023-04-06T01:03:22;8.38;;;6.15;;
41077;SDS011;26823;42.662;23.352;2023-04-06T01:05:48;8.70;;;6.22;;
41077;SDS011;26823;42.662;23.352;2023-04-06T01:08:14;9.52;;;5.53;;
41077;SDS011;26823;42.662;23.352;2023-04-06T01:10:39;10.43;;;6.13;;
41077;SDS011;26823;42.662;23.352;2023-04-06T01:13:05;8.63;;;5.35;;
41077;SDS011;26823;42.662;23.352;2023-04-06T01:15:30;7.55;;;5.63;;
41077;SDS011;26823;42.662;23.352;2023-04-06T01:17:58;10.13;;;6.43;;
41077;SDS011;26823;42.662;23.352;2023-04-06T01:20:24;11.35;;;5.78;;
41077;SDS011;26823;42.662;23.352;2023-04-06T01:22:49;7.10;;;5.80;;
41077;SDS011;26823;42.662;23.352;2023-04-06T01:25:15;8.77;;;5.80;;
41077;SDS011;26823;42.662;23.352;2023-04-06T01:27:40;7.75;;;5.43;;
41077;SDS011;26823;42.662;23.352;2023-04-06T01:30:06;8.90;;;5.82;;
41077;SDS011;26823;42.662;23.352;2023-04-06T01:32:32;7.70;;;5.50;;
41077;SDS011;26823;42.662;23.352;2023-04-06T01:34:57;7.60;;;5.50;;
41077;SDS011;26823;42.662;23.352;2023-04-06T01:37:23;8.95;;;5.75;;
41077;SDS011;26823;42.662;23.352;2023-04-06T01:39:48;8.10;;;5.18;;
41077;SDS011;26823;42.662;23.352;2023-04-06T01:42:14;9.18;;;6.35;;
41077;SDS011;26823;42.662;23.352;2023-04-06T01:44:39;8.85;;;6.22;;
41077;SDS011;26823;42.662;23.352;2023-04-06T01:47:05;10.57;;;6.05;;
41077;SDS011;26823;42.662;23.352;2023-04-06T01:49:30;8.48;;;5.38;;
41077;SDS011;26823;42.662;23.352;2023-04-06T01:51:56;11.35;;;6.32;;
41077;SDS011;26823;42.662;23.352;2023-04-06T01:54:21;9.13;;;5.65;;
41077;SDS011;26823;42.662;23.352;2023-04-06T01:56:47;10.20;;;5.88;;
41077;SDS011;26823;42.662;23.352;2023-04-06T01:59:13;10.77;;;6.32;;
41077;SDS011;26823;42.662;23.352;2023-04-06T02:01:39;10.50;;;5.82;;
41077;SDS011;26823;42.662;23.352;2023-04-06T02:04:05;8.05;;;5.65;;
41077;SDS011;26823;42.662;23.352;2023-04-06T02:06:30;10.07;;;6.43;;
41077;SDS011;26823;42.662;23.352;2023-04-06T02:08:56;11.07;;;5.75;;
41077;SDS011;26823;42.662;23.352;2023-04-06T02:11:21;8.63;;;5.15;;
41077;SDS011;26823;42.662;23.352;2023-04-06T02:13:47;9.70;;;5.47;;
41077;SDS011;26823;42.662;23.352;2023-04-06T02:16:12;8.52;;;5.65;;
41077;SDS011;26823;42.662;23.352;2023-04-06T02:18:38;7.25;;;4.82;;
41077;SDS011;26823;42.662;23.352;2023-04-06T02:21:03;6.88;;;5.00;;
41077;SDS011;26823;42.662;23.352;2023-04-06T02:23:29;8.77;;;5.50;;
41077;SDS011;26823;42.662;23.352;2023-04-06T02:25:54;9.52;;;5.50;;
41077;SDS011;26823;42.662;23.352;2023-04-06T02:28:20;8.30;;;5.30;;
41077;SDS011;26823;42.662;23.352;2023-04-06T02:30:45;5.80;;;4.60;;
41077;SDS011;26823;42.662;23.352;2023-04-06T02:33:11;7.95;;;4.95;;
41077;SDS011;26823;42.662;23.352;2023-04-06T02:35:37;8.85;;;5.63;;
41077;SDS011;26823;42.662;23.352;2023-04-06T02:38:02;7.75;;;4.65;;
41077;SDS011;26823;42.662;23.352;2023-04-06T02:40:27;7.50;;;5.10;;
41077;SDS011;26823;42.662;23.352;2023-04-06T02:42:53;8.70;;;5.50;;
41077;SDS011;26823;42.662;23.352;2023-04-06T02:45:18;7.30;;;5.15;;
41077;SDS011;26823;42.662;23.352;2023-04-06T02:47:44;7.60;;;5.78;;
41077;SDS011;26823;42.662;23.352;2023-04-06T02:50:09;7.63;;;5.47;;
41077;SDS011;26823;42.662;23.352;2023-04-06T02:52:35;8.20;;;5.15;;
41077;SDS011;26823;42.662;23.352;2023-04-06T02:55:00;9.90;;;5.50;;
41077;SDS011;26823;42.662;23.352;2023-04-06T02:57:26;8.18;;;5.60;;
41077;SDS011;26823;42.662;23.352;2023-04-06T02:59:51;8.23;;;5.10;;
41077;SDS011;26823;42.662;23.352;2023-04-06T03:02:17;8.52;;;5.75;;
41077;SDS011;26823;42.662;23.352;2023-04-06T03:04:42;7.68;;;5.45;;
41077;SDS011;26823;42.662;23.352;2023-04-06T03:07:08;10.10;;;5.32;;
41077;SDS011;26823;42.662;23.352;2023-04-06T03:09:33;7.78;;;4.97;;
41077;SDS011;26823;42.662;23.352;2023-04-06T03:11:59;8.60;;;5.93;;
41077;SDS011;26823;42.662;23.352;2023-04-06T03:14:25;9.63;;;5.68;;
41077;SDS011;26823;42.662;23.352;2023-04-06T03:16:52;9.27;;;6.35;;
41077;SDS011;26823;42.662;23.352;2023-04-06T03:19:17;10.02;;;5.15;;
41077;SDS011;26823;42.662;23.352;2023-04-06T03:21:43;7.15;;;5.00;;
41077;SDS011;26823;42.662;23.352;2023-04-06T03:24:08;8.70;;;5.22;;
41077;SDS011;26823;42.662;23.352;2023-04-06T03:26:34;9.52;;;5.85;;
41077;SDS011;26823;42.662;23.352;2023-04-06T03:28:59;7.30;;;5.20;;
41077;SDS011;26823;42.662;23.352;2023-04-06T03:31:25;11.05;;;6.05;;
41077;SDS011;26823;42.662;23.352;2023-04-06T03:33:51;8.25;;;5.85;;
41077;SDS011;26823;42.662;23.352;2023-04-06T03:36:17;8.40;;;5.85;;
41077;SDS011;26823;42.662;23.352;2023-04-06T03:38:42;8.50;;;5.30;;
41077;SDS011;26823;42.662;23.352;2023-04-06T03:41:08;7.60;;;5.07;;
41077;SDS011;26823;42.662;23.352;2023-04-06T03:43:33;8.93;;;5.35;;
41077;SDS011;26823;42.662;23.352;2023-04-06T03:45:58;7.35;;;5.20;;
41077;SDS011;26823;42.662;23.352;2023-04-06T03:48:24;6.75;;;5.00;;
41077;SDS011;26823;42.662;23.352;2023-04-06T03:50:49;7.75;;;4.72;;
41077;SDS011;26823;42.662;23.352;2023-04-06T03:53:15;5.53;;;4.57;;
41077;SDS011;26823;42.662;23.352;2023-04-06T03:55:46;8.43;;;5.22;;
41077;SDS011;26823;42.662;23.352;2023-04-06T03:58:12;8.90;;;5.57;;
41077;SDS011;26823;42.662;23.352;2023-04-06T04:00:43;7.35;;;5.20;;
41077;SDS011;26823;42.662;23.352;2023-04-06T04:03:09;11.45;;;5.50;;
41077;SDS011;26823;42.662;23.352;2023-04-06T04:05:34;8.52;;;5.18;;
41077;SDS011;26823;42.662;23.352;2023-04-06T04:08:00;6.45;;;4.80;;
41077;SDS011;26823;42.662;23.352;2023-04-06T04:10:25;9.25;;;5.55;;
41077;SDS011;26823;42.662;23.352;2023-04-06T04:12:50;6.97;;;4.88;;
41077;SDS011;26823;42.662;23.352;2023-04-06T04:15:16;8.00;;;5.07;;
41077;SDS011;26823;42.662;23.352;2023-04-06T04:17:41;7.45;;;5.00;;
41077;SDS011;26823;42.662;23.352;2023-04-06T04:20:11;8.95;;;5.65;;
41077;SDS011;26823;42.662;23.352;2023-04-06T04:22:37;7.30;;;5.15;;
41077;SDS011;26823;42.662;23.352;2023-04-06T04:25:02;10.15;;;5.25;;
41077;SDS011;26823;42.662;23.352;2023-04-06T04:27:28;9.07;;;5.13;;
41077;SDS011;26823;42.662;23.352;2023-04-06T04:29:53;8.23;;;5.03;;
41077;SDS011;26823;42.662;23.352;2023-04-06T04:32:19;9.00;;;5.55;;
41077;SDS011;26823;42.662;23.352;2023-04-06T04:34:46;7.78;;;4.85;;
41077;SDS011;26823;42.662;23.352;2023-04-06T04:37:12;7.90;;;5.00;;
41077;SDS011;26823;42.662;23.352;2023-04-06T04:39:37;7.43;;;4.78;;
41077;SDS011;26823;42.662;23.352;2023-04-06T04:42:03;8.20;;;5.18;;
41077;SDS011;26823;42.662;23.352;2023-04-06T04:44:28;11.15;;;5.65;;
41077;SDS011;26823;42.662;23.352;2023-04-06T04:46:54;10.23;;;5.78;;
41077;SDS011;26823;42.662;23.352;2023-04-06T04:49:19;8.15;;;5.18;;
41077;SDS011;26823;42.662;23.352;2023-04-06T04:51:44;9.93;;;5.72;;
41077;SDS011;26823;42.662;23.352;2023-04-06T04:54:10;10.07;;;6.07;;
41077;SDS011;26823;42.662;23.352;2023-04-06T04:56:35;6.53;;;4.57;;
41077;SDS011;26823;42.662;23.352;2023-04-06T04:59:01;8.25;;;5.25;;
41077;SDS011;26823;42.662;23.352;2023-04-06T05:01:26;11.10;;;5.90;;
41077;SDS011;26823;42.662;23.352;2023-04-06T05:03:52;8.23;;;5.00;;
41077;SDS011;26823;42.662;23.352;2023-04-06T05:06:17;7.35;;;5.05;;
41077;SDS011;26823;42.662;23.352;2023-04-06T05:08:44;8.23;;;5.28;;
41077;SDS011;26823;42.662;23.352;2023-04-06T05:11:09;8.32;;;5.13;;
41077;SDS011;26823;42.662;23.352;2023-04-06T05:13:35;9.20;;;6.32;;
41077;SDS011;26823;42.662;23.352;2023-04-06T05:16:00;10.85;;;6.78;;
41077;SDS011;26823;42.662;23.352;2023-04-06T05:18:26;8.73;;;6.03;;
41077;SDS011;26823;42.662;23.352;2023-04-06T05:20:52;8.57;;;5.47;;
41077;SDS011;26823;42.662;23.352;2023-04-06T05:23:17;12.30;;;7.05;;
41077;SDS011;26823;42.662;23.352;2023-04-06T05:25:43;10.50;;;6.07;;
41077;SDS011;26823;42.662;23.352;2023-04-06T05:28:08;9.32;;;6.20;;
41077;SDS011;26823;42.662;23.352;2023-04-06T05:30:34;10.90;;;6.47;;
41077;SDS011;26823;42.662;23.352;2023-04-06T05:33:00;9.75;;;6.15;;
41077;SDS011;26823;42.662;23.352;2023-04-06T05:35:26;11.90;;;7.20;;
41077;SDS011;26823;42.662;23.352;2023-04-06T05:37:52;11.20;;;6.72;;
41077;SDS011;26823;42.662;23.352;2023-04-06T05:40:17;12.50;;;6.80;;
41077;SDS011;26823;42.662;23.352;2023-04-06T05:42:42;11.52;;;6.88;;
41077;SDS011;26823;42.662;23.352;2023-04-06T05:45:09;10.00;;;6.88;;
41077;SDS011;26823;42.662;23.352;2023-04-06T05:47:36;9.57;;;6.30;;
41077;SDS011;26823;42.662;23.352;2023-04-06T05:50:02;9.45;;;6.72;;
41077;SDS011;26823;42.662;23.352;2023-04-06T05:52:28;10.38;;;6.90;;
41077;SDS011;26823;42.662;23.352;2023-04-06T05:54:53;11.80;;;7.18;;
41077;SDS011;26823;42.662;23.352;2023-04-06T05:57:19;11.88;;;7.07;;
41077;SDS011;26823;42.662;23.352;2023-04-06T05:59:44;13.50;;;7.45;;
41077;SDS011;26823;42.662;23.352;2023-04-06T06:02:10;12.48;;;7.82;;
41077;SDS011;26823;42.662;23.352;2023-04-06T06:04:35;13.00;;;8.02;;
41077;SDS011;26823;42.662;23.352;2023-04-06T06:07:01;15.45;;;7.60;;
41077;SDS011;26823;42.662;23.352;2023-04-06T06:09:26;12.52;;;7.75;;
41077;SDS011;26823;42.662;23.352;2023-04-06T06:11:52;11.00;;;7.18;;
41077;SDS011;26823;42.662;23.352;2023-04-06T06:14:21;12.10;;;7.45;;
41077;SDS011;26823;42.662;23.352;2023-04-06T06:16:47;18.00;;;7.88;;
41077;SDS011;26823;42.662;23.352;2023-04-06T06:19:12;11.63;;;7.28;;
41077;SDS011;26823;42.662;23.352;2023-04-06T06:21:38;10.32;;;6.70;;
41077;SDS011;26823;42.662;23.352;2023-04-06T06:24:03;11.23;;;7.07;;
41077;SDS011;26823;42.662;23.352;2023-04-06T06:26:29;15.13;;;8.55;;
41077;SDS011;26823;42.662;23.352;2023-04-06T06:28:54;12.82;;;8.00;;
41077;SDS011;26823;42.662;23.352;2023-04-06T06:31:20;13.88;;;8.63;;
41077;SDS011;26823;42.662;23.352;2023-04-06T06:33:47;15.20;;;8.43;;
41077;SDS011;26823;42.662;23.352;2023-04-06T06:36:16;14.02;;;8.93;;
41077;SDS011;26823;42.662;23.352;2023-04-06T06:38:42;13.45;;;8.77;;
41077;SDS011;26823;42.662;23.352;2023-04-06T06:41:07;10.80;;;7.65;;
41077;SDS011;26823;42.662;23.352;2023-04-06T06:43:33;12.77;;;7.25;;
41077;SDS011;26823;42.662;23.352;2023-04-06T06:45:58;11.82;;;8.48;;
41077;SDS011;26823;42.662;23.352;2023-04-06T06:48:24;10.63;;;7.57;;
41077;SDS011;26823;42.662;23.352;2023-04-06T06:50:50;13.02;;;8.90;;
41077;SDS011;26823;42.662;23.352;2023-04-06T06:53:15;12.55;;;8.15;;
41077;SDS011;26823;42.662;23.352;2023-04-06T06:55:41;13.45;;;8.80;;
41077;SDS011;26823;42.662;23.352;2023-04-06T06:58:09;13.70;;;7.90;;
41077;SDS011;26823;42.662;23.352;2023-04-06T07:00:34;10.63;;;7.75;;
41077;SDS011;26823;42.662;23.352;2023-04-06T07:03:00;9.88;;;7.03;;
41077;SDS011;26823;42.662;23.352;2023-04-06T07:05:25;10.63;;;7.38;;
41077;SDS011;26823;42.662;23.352;2023-04-06T07:07:51;10.40;;;7.47;;
41077;SDS011;26823;42.662;23.352;2023-04-06T07:10:17;7.85;;;6.35;;
41077;SDS011;26823;42.662;23.352;2023-04-06T07:12:42;9.35;;;6.93;;
41077;SDS011;26823;42.662;23.352;2023-04-06T07:15:08;8.65;;;6.70;;
41077;SDS011;26823;42.662;23.352;2023-04-06T07:17:34;11.85;;;7.20;;
41077;SDS011;26823;42.662;23.352;2023-04-06T07:20:06;9.45;;;6.80;;
41077;SDS011;26823;42.662;23.352;2023-04-06T07:22:32;7.93;;;6.13;;
41077;SDS011;26823;42.662;23.352;2023-04-06T07:24:58;8.05;;;6.30;;
41077;SDS011;26823;42.662;23.352;2023-04-06T07:27:23;9.27;;;6.78;;
41077;SDS011;26823;42.662;23.352;2023-04-06T07:29:49;8.73;;;6.38;;
41077;SDS011;26823;42.662;23.352;2023-04-06T07:32:14;9.52;;;6.55;;
41077;SDS011;26823;42.662;23.352;2023-04-06T07:34:40;9.38;;;6.85;;
41077;SDS011;26823;42.662;23.352;2023-04-06T07:37:05;9.05;;;6.13;;
41077;SDS011;26823;42.662;23.352;2023-04-06T07:39:30;10.93;;;6.60;;
41077;SDS011;26823;42.662;23.352;2023-04-06T07:41:56;7.95;;;6.35;;
41077;SDS011;26823;42.662;23.352;2023-04-06T07:44:21;9.20;;;6.03;;
41077;SDS011;26823;42.662;23.352;2023-04-06T07:46:47;7.28;;;5.63;;
41077;SDS011;26823;42.662;23.352;2023-04-06T07:49:12;9.77;;;6.22;;
41077;SDS011;26823;42.662;23.352;2023-04-06T07:51:39;9.02;;;6.60;;
41077;SDS011;26823;42.662;23.352;2023-04-06T07:54:05;8.73;;;5.90;;
41077;SDS011;26823;42.662;23.352;2023-04-06T07:56:30;8.40;;;6.15;;
41077;SDS011;26823;42.662;23.352;2023-04-06T07:58:56;7.15;;;6.05;;
41077;SDS011;26823;42.662;23.352;2023-04-06T08:01:23;8.30;;;6.25;;
41077;SDS011;26823;42.662;23.352;2023-04-06T08:03:48;9.32;;;6.07;;
41077;SDS011;26823;42.662;23.352;2023-04-06T08:06:15;7.88;;;6.55;;
41077;SDS011;26823;42.662;23.352;2023-04-06T08:08:41;8.27;;;6.90;;
41077;SDS011;26823;42.662;23.352;2023-04-06T08:11:06;9.55;;;7.00;;
41077;SDS011;26823;42.662;23.352;2023-04-06T08:13:32;9.25;;;7.10;;
41077;SDS011;26823;42.662;23.352;2023-04-06T08:15:58;12.02;;;7.38;;
41077;SDS011;26823;42.662;23.352;2023-04-06T08:18:25;9.73;;;6.32;;
41077;SDS011;26823;42.662;23.352;2023-04-06T08:20:50;8.60;;;6.20;;
41077;SDS011;26823;42.662;23.352;2023-04-06T08:23:16;9.93;;;6.20;;
41077;SDS011;26823;42.662;23.352;2023-04-06T08:25:41;11.07;;;6.47;;
41077;SDS011;26823;42.662;23.352;2023-04-06T08:28:07;9.13;;;5.93;;
41077;SDS011;26823;42.662;23.352;2023-04-06T08:30:34;8.25;;;6.18;;
41077;SDS011;26823;42.662;23.352;2023-04-06T08:33:00;8.55;;;5.97;;
41077;SDS011;26823;42.662;23.352;2023-04-06T08:35:26;10.15;;;6.45;;
41077;SDS011;26823;42.662;23.352;2023-04-06T08:37:51;8.25;;;6.10;;
41077;SDS011;26823;42.662;23.352;2023-04-06T08:40:17;8.43;;;5.97;;
41077;SDS011;26823;42.662;23.352;2023-04-06T08:42:44;10.45;;;7.03;;
41077;SDS011;26823;42.662;23.352;2023-04-06T08:45:16;7.25;;;5.97;;
41077;SDS011;26823;42.662;23.352;2023-04-06T08:47:41;7.32;;;5.63;;
41077;SDS011;26823;42.662;23.352;2023-04-06T08:50:07;8.48;;;6.13;;
41077;SDS011;26823;42.662;23.352;2023-04-06T08:52:33;9.95;;;6.60;;
41077;SDS011;26823;42.662;23.352;2023-04-06T08:54:59;8.50;;;5.85;;
41077;SDS011;26823;42.662;23.352;2023-04-06T08:57:25;11.25;;;5.82;;
41077;SDS011;26823;42.662;23.352;2023-04-06T08:59:51;8.02;;;5.90;;
41077;SDS011;26823;42.662;23.352;2023-04-06T09:02:18;7.40;;;5.40;;
41077;SDS011;26823;42.662;23.352;2023-04-06T09:04:48;8.35;;;5.72;;
41077;SDS011;26823;42.662;23.352;2023-04-06T09:07:17;7.63;;;5.55;;
41077;SDS011;26823;42.662;23.352;2023-04-06T09:09:42;8.45;;;5.68;;
41077;SDS011;26823;42.662;23.352;2023-04-06T09:12:25;7.88;;;5.78;;
41077;SDS011;26823;42.662;23.352;2023-04-06T09:14:54;8.75;;;6.13;;
41077;SDS011;26823;42.662;23.352;2023-04-06T09:17:30;7.90;;;5.32;;
41077;SDS011;26823;42.662;23.352;2023-04-06T09:20:01;9.73;;;5.80;;
41077;SDS011;26823;42.662;23.352;2023-04-06T09:22:37;10.30;;;5.88;;
41077;SDS011;26823;42.662;23.352;2023-04-06T09:25:04;8.38;;;6.15;;
41077;SDS011;26823;42.662;23.352;2023-04-06T09:27:34;8.32;;;5.82;;
41077;SDS011;26823;42.662;23.352;2023-04-06T09:32:48;7.15;;;5.90;;
41077;SDS011;26823;42.662;23.352;2023-04-06T09:35:18;8.63;;;6.13;;
41077;SDS011;26823;42.662;23.352;2023-04-06T09:37:48;8.98;;;6.75;;
41077;SDS011;26823;42.662;23.352;2023-04-06T09:40:14;8.82;;;6.35;;
41077;SDS011;26823;42.662;23.352;2023-04-06T09:42:42;7.47;;;5.75;;
41077;SDS011;26823;42.662;23.352;2023-04-06T09:45:11;7.22;;;5.85;;
41077;SDS011;26823;42.662;23.352;2023-04-06T09:47:37;8.88;;;5.38;;
41077;SDS011;26823;42.662;23.352;2023-04-06T09:50:05;6.88;;;5.97;;
41077;SDS011;26823;42.662;23.352;2023-04-06T09:52:41;8.75;;;6.30;;
41077;SDS011;26823;42.662;23.352;2023-04-06T09:55:20;7.60;;;6.35;;
41077;SDS011;26823;42.662;23.352;2023-04-06T09:57:55;8.07;;;6.07;;
41077;SDS011;26823;42.662;23.352;2023-04-06T10:00:27;7.05;;;5.80;;
41077;SDS011;26823;42.662;23.352;2023-04-06T10:02:59;6.70;;;5.70;;
41077;SDS011;26823;42.662;23.352;2023-04-06T10:08:15;8.82;;;6.50;;
41077;SDS011;26823;42.662;23.352;2023-04-06T10:10:43;8.52;;;6.03;;
41077;SDS011;26823;42.662;23.352;2023-04-06T10:13:10;8.02;;;6.70;;
41077;SDS011;26823;42.662;23.352;2023-04-06T10:15:36;9.73;;;5.72;;
41077;SDS011;26823;42.662;23.352;2023-04-06T10:18:03;7.43;;;6.32;;
41077;SDS011;26823;42.662;23.352;2023-04-06T10:25:33;8.60;;;5.68;;
41077;SDS011;26823;42.662;23.352;2023-04-06T10:27:59;8.55;;;5.78;;
41077;SDS011;26823;42.662;23.352;2023-04-06T10:30:32;7.45;;;5.70;;
41077;SDS011;26823;42.662;23.352;2023-04-06T10:32:58;7.28;;;5.65;;
41077;SDS011;26823;42.662;23.352;2023-04-06T10:35:24;8.77;;;6.25;;
41077;SDS011;26823;42.662;23.352;2023-04-06T10:38:01;9.55;;;5.50;;
41077;SDS011;26823;42.662;23.352;2023-04-06T10:40:28;7.80;;;5.80;;
41077;SDS011;26823;42.662;23.352;2023-04-06T10:42:54;8.38;;;5.60;;
41077;SDS011;26823;42.662;23.352;2023-04-06T10:47:48;9.50;;;6.53;;
41077;SDS011;26823;42.662;23.352;2023-04-06T10:50:15;8.20;;;6.03;;
41077;SDS011;26823;42.662;23.352;2023-04-06T10:52:43;8.52;;;5.93;;
41077;SDS011;26823;42.662;23.352;2023-04-06T10:55:10;9.05;;;6.40;;
41077;SDS011;26823;42.662;23.352;2023-04-06T10:57:37;11.93;;;7.30;;
41077;SDS011;26823;42.662;23.352;2023-04-06T11:00:06;8.90;;;6.65;;
41077;SDS011;26823;42.662;23.352;2023-04-06T11:02:33;8.38;;;6.40;;
41077;SDS011;26823;42.662;23.352;2023-04-06T11:05:00;8.90;;;6.20;;
41077;SDS011;26823;42.662;23.352;2023-04-06T11:07:26;8.48;;;6.30;;
41077;SDS011;26823;42.662;23.352;2023-04-06T11:09:54;12.15;;;6.72;;
41077;SDS011;26823;42.662;23.352;2023-04-06T11:12:20;9.73;;;6.80;;
41077;SDS011;26823;42.662;23.352;2023-04-06T11:15:00;7.85;;;6.28;;
41077;SDS011;26823;42.662;23.352;2023-04-06T11:17:29;8.88;;;6.25;;
41077;SDS011;26823;42.662;23.352;2023-04-06T11:19:56;9.80;;;6.78;;
41077;SDS011;26823;42.662;23.352;2023-04-06T11:22:22;9.30;;;6.43;;
41077;SDS011;26823;42.662;23.352;2023-04-06T11:24:47;8.23;;;6.25;;
41077;SDS011;26823;42.662;23.352;2023-04-06T11:27:13;8.57;;;6.25;;
41077;SDS011;26823;42.662;23.352;2023-04-06T11:29:41;7.60;;;6.40;;
41077;SDS011;26823;42.662;23.352;2023-04-06T11:32:07;9.65;;;6.95;;
41077;SDS011;26823;42.662;23.352;2023-04-06T11:34:37;8.38;;;5.80;;
41077;SDS011;26823;42.662;23.352;2023-04-06T11:37:07;7.57;;;5.82;;
41077;SDS011;26823;42.662;23.352;2023-04-06T11:39:38;6.00;;;4.97;;
41077;SDS011;26823;42.662;23.352;2023-04-06T11:42:05;9.38;;;6.03;;
41077;SDS011;26823;42.662;23.352;2023-04-06T11:44:35;8.55;;;5.80;;
41077;SDS011;26823;42.662;23.352;2023-04-06T11:47:01;7.75;;;6.35;;
41077;SDS011;26823;42.662;23.352;2023-04-06T11:49:28;8.60;;;6.03;;
41077;SDS011;26823;42.662;23.352;2023-04-06T11:51:54;8.90;;;6.47;;
41077;SDS011;26823;42.662;23.352;2023-04-06T11:56:55;8.88;;;6.32;;
41077;SDS011;26823;42.662;23.352;2023-04-06T11:59:21;9.02;;;5.40;;
41077;SDS011;26823;42.662;23.352;2023-04-06T12:01:47;8.82;;;6.22;;
41077;SDS011;26823;42.662;23.352;2023-04-06T12:04:13;8.25;;;6.35;;
41077;SDS011;26823;42.662;23.352;2023-04-06T12:06:39;12.13;;;7.32;;
41077;SDS011;26823;42.662;23.352;2023-04-06T12:09:05;9.60;;;6.30;;
41077;SDS011;26823;42.662;23.352;2023-04-06T12:11:30;7.85;;;6.13;;
41077;SDS011;26823;42.662;23.352;2023-04-06T12:13:56;8.65;;;6.38;;
41077;SDS011;26823;42.662;23.352;2023-04-06T12:16:21;8.10;;;6.10;;
41077;SDS011;26823;42.662;23.352;2023-04-06T12:18:46;10.05;;;6.88;;
41077;SDS011;26823;42.662;23.352;2023-04-06T12:21:12;7.68;;;6.38;;
41077;SDS011;26823;42.662;23.352;2023-04-06T12:23:37;10.07;;;6.80;;
41077;SDS011;26823;42.662;23.352;2023-04-06T12:26:03;7.93;;;6.57;;
41077;SDS011;26823;42.662;23.352;2023-04-06T12:28:28;8.30;;;6.43;;
41077;SDS011;26823;42.662;23.352;2023-04-06T12:31:01;8.57;;;6.50;;
41077;SDS011;26823;42.662;23.352;2023-04-06T12:33:26;9.70;;;7.07;;
41077;SDS011;26823;42.662;23.352;2023-04-06T12:35:52;9.20;;;6.55;;
41077;SDS011;26823;42.662;23.352;2023-04-06T12:38:17;7.95;;;6.32;;
41077;SDS011;26823;42.662;23.352;2023-04-06T12:40:43;7.78;;;6.18;;
41077;SDS011;26823;42.662;23.352;2023-04-06T12:43:08;9.55;;;6.68;;
41077;SDS011;26823;42.662;23.352;2023-04-06T12:45:34;11.73;;;6.68;;
41077;SDS011;26823;42.662;23.352;2023-04-06T12:47:59;9.95;;;6.07;;
41077;SDS011;26823;42.662;23.352;2023-04-06T12:50:25;7.68;;;5.63;;
41077;SDS011;26823;42.662;23.352;2023-04-06T12:52:51;6.70;;;5.50;;
41077;SDS011;26823;42.662;23.352;2023-04-06T12:55:17;8.27;;;6.20;;
41077;SDS011;26823;42.662;23.352;2023-04-06T12:57:42;10.88;;;6.53;;
41077;SDS011;26823;42.662;23.352;2023-04-06T13:00:08;7.68;;;6.18;;
41077;SDS011;26823;42.662;23.352;2023-04-06T13:02:33;8.73;;;6.70;;
41077;SDS011;26823;42.662;23.352;2023-04-06T13:04:59;10.40;;;7.22;;
41077;SDS011;26823;42.662;23.352;2023-04-06T13:07:25;12.05;;;6.47;;
41077;SDS011;26823;42.662;23.352;2023-04-06T13:09:51;8.63;;;6.80;;
41077;SDS011;26823;42.662;23.352;2023-04-06T13:12:16;10.45;;;7.45;;
41077;SDS011;26823;42.662;23.352;2023-04-06T13:14:43;13.48;;;6.78;;
41077;SDS011;26823;42.662;23.352;2023-04-06T13:17:08;12.55;;;7.40;;
41077;SDS011;26823;42.662;23.352;2023-04-06T13:19:34;9.30;;;6.63;;
41077;SDS011;26823;42.662;23.352;2023-04-06T13:21:59;9.10;;;6.65;;
41077;SDS011;26823;42.662;23.352;2023-04-06T13:24:24;8.75;;;6.72;;
41077;SDS011;26823;42.662;23.352;2023-04-06T13:26:50;9.85;;;6.35;;
41077;SDS011;26823;42.662;23.352;2023-04-06T13:29:15;7.45;;;6.18;;
41077;SDS011;26823;42.662;23.352;2023-04-06T13:31:41;13.60;;;6.60;;
41077;SDS011;26823;42.662;23.352;2023-04-06T13:34:06;11.32;;;7.00;;
41077;SDS011;26823;42.662;23.352;2023-04-06T13:36:32;8.85;;;6.47;;
41077;SDS011;26823;42.662;23.352;2023-04-06T13:38:57;11.80;;;6.35;;
41077;SDS011;26823;42.662;23.352;2023-04-06T13:41:24;14.30;;;7.57;;
41077;SDS011;26823;42.662;23.352;2023-04-06T13:43:51;7.95;;;6.55;;
41077;SDS011;26823;42.662;23.352;2023-04-06T13:46:17;9.20;;;6.57;;
41077;SDS011;26823;42.662;23.352;2023-04-06T13:48:42;7.38;;;6.50;;
41077;SDS011;26823;42.662;23.352;2023-04-06T13:51:09;7.88;;;5.60;;
41077;SDS011;26823;42.662;23.352;2023-04-06T13:53:35;8.02;;;5.90;;
41077;SDS011;26823;42.662;23.352;2023-04-06T13:56:00;7.60;;;5.85;;
41077;SDS011;26823;42.662;23.352;2023-04-06T13:58:26;6.50;;;5.47;;
41077;SDS011;26823;42.662;23.352;2023-04-06T14:00:51;9.23;;;5.68;;
41077;SDS011;26823;42.662;23.352;2023-04-06T14:03:17;7.22;;;5.80;;
41077;SDS011;26823;42.662;23.352;2023-04-06T14:05:44;9.95;;;5.28;;
41077;SDS011;26823;42.662;23.352;2023-04-06T14:08:10;7.90;;;5.47;;
41077;SDS011;26823;42.662;23.352;2023-04-06T14:10:38;7.75;;;6.03;;
41077;SDS011;26823;42.662;23.352;2023-04-06T14:13:08;8.68;;;5.50;;
41077;SDS011;26823;42.662;23.352;2023-04-06T14:15:34;9.27;;;5.57;;
41077;SDS011;26823;42.662;23.352;2023-04-06T14:18:00;8.20;;;6.30;;
41077;SDS011;26823;42.662;23.352;2023-04-06T14:20:25;13.63;;;6.28;;
41077;SDS011;26823;42.662;23.352;2023-04-06T14:22:51;16.15;;;6.10;;
41077;SDS011;26823;42.662;23.352;2023-04-06T14:25:17;8.60;;;6.28;;
41077;SDS011;26823;42.662;23.352;2023-04-06T14:27:43;8.45;;;5.70;;
41077;SDS011;26823;42.662;23.352;2023-04-06T14:30:09;11.68;;;5.90;;
41077;SDS011;26823;42.662;23.352;2023-04-06T14:32:35;11.70;;;6.63;;
41077;SDS011;26823;42.662;23.352;2023-04-06T14:35:02;7.65;;;6.15;;
41077;SDS011;26823;42.662;23.352;2023-04-06T14:37:28;8.68;;;5.93;;
41077;SDS011;26823;42.662;23.352;2023-04-06T14:39:53;7.63;;;5.97;;